Marshall Municipal-Ryan, MN

04:48 AM CDT am 21. April 2015 (GMT -0500)
Tracy | | Change Station
CLOSE
Current Station
Flughafen
Location: Tracy,
Höhe: 1339 ft
Wetterstationen in der Umgebung
aktive Warnung: Wind Advisory

Höhe 1339 ft 44.25 °N, 95.61 °W | Updated 15 minutes ago

Bedeckt
Bedeckt
34 °F
gefühlte 29 °F
N
6
Wind Wechselnd Wind aus West

Heute
Max. -- | schwach -- °F
--% Regenrisiko
Gestern
Max. -- | schwach -- °F
Precip. -- inch
6:29 AM 8:15 PM
Erstes Viertel, 9% visible
Druck 29.66 inch
Sichtweite 10.0 Meilen
Wolken Teils Wolkig 4100 ft
Windchill 29 °F
Taupunkt 28 °F
Feuchtigkeit 78%
Regen 0.00 inch
Schneehöhe Nicht verfügbar..
UV 0 von 12
Pollen 11.10 von 12
Luftqualität Nicht verfügbar..
Flu Activity Local Activity
METAR KTKC 210933Z AUTO 27005KT 10SM SCT041 01/M02 A2966 RMK AO2 T00101024

More Conditions Fewer Conditions

Druck 29.66 inch
Sichtweite 10.0 Meilen
Wolken Teils Wolkig 4100 ft
Windchill 29 °F
Taupunkt 28 °F
Feuchtigkeit 78%
Regen 0.00 inch
Schneehöhe Nicht verfügbar..
UV 0 von 12
Pollen 11.10 von 12
Luftqualität Nicht verfügbar..
Flu Activity Local Activity
METAR KTKC 210933Z AUTO 27005KT 10SM SCT041 01/M02 A2966 RMK AO2 T00101024

More Conditions Fewer Conditions

10-Day Weather Forecast

Almanac

Astronomie

Apr. 21, 2015 Aufgang Untergang
Genaue Zeit
Bürgerliche Dämmerung
Nautische Dämmerung
Astronomische Dämmerung
Mond
Länge des sichtbaren Lichts
Tageslänge
Tomorrow will be .
, % of the Moon is Illuminated

Heutige Rekorde

State Highs State Lows

Community

WunderPhotos

Upload Photos

1,815,331 Fotos hochgeladen!

WunderBlogs® & News

Nearby

Luftqualität

  Luftqualität LQ Index Schadstoff
Not available.

Schneehöhe

Station Depth Höhe

Erdbebenaktivität

Stadt Distance Mag. Time & Date
Minimum magnitude displayed is 2.5.

küstennahe Wassertemperaturen

Ort Temperatur

Stations

Wetterstationen in der Umgebung

Stationsstandort Temp. Windchill Taupunkt Feuchtigkeit Wind Precip. Höhe Aktualisiert Art
                   
Wind Advisory
Statement as of 03:53 AM CDT am 21. April 2015

... Wind Advisory in effect from noon today to 6 PM CDT this
evening...

The National Weather Service in Sioux Falls has issued a Wind
Advisory... which is in effect from noon today to 6 PM CDT this
evening.

* Timing... northwest winds will become strong again this morning
and begin to decrease at the end of the afternoon.

* Weather conditions... sustained northwest winds 25 to 35 mph with
a few gusts around 45 mph.

Precautionary/preparedness actions...

A Wind Advisory is issued when sustained winds are forecast to be
31 to 39 mph or gusts will range between 46 and 57 mph. Winds of
these magnitudes may cause minor property damage without extra
precautions. Motorists in high profile vehicles should use
caution until the winds subside.